sensor_id;sensor_type;location;lat;lon;timestamp;pressure;altitude;pressure_sealevel;temperature;humidity
25156;BME280;21913;52.456;13.634;2023-03-04T00:00:26;101102.53;;;10.80;57.76
25156;BME280;21913;52.456;13.634;2023-03-04T00:05:28;101104.25;;;10.80;57.69
25156;BME280;21913;52.456;13.634;2023-03-04T00:10:29;101105.13;;;10.80;57.63
25156;BME280;21913;52.456;13.634;2023-03-04T00:15:31;101106.00;;;10.81;57.73
25156;BME280;21913;52.456;13.634;2023-03-04T00:20:33;101100.81;;;10.81;57.83
25156;BME280;21913;52.456;13.634;2023-03-04T00:25:34;101095.63;;;10.79;57.83
25156;BME280;21913;52.456;13.634;2023-03-04T00:30:36;101098.22;;;10.81;57.87
25156;BME280;21913;52.456;13.634;2023-03-04T00:35:38;101099.09;;;10.80;57.84
25156;BME280;21913;52.456;13.634;2023-03-04T00:40:39;101085.28;;;10.81;57.83
25156;BME280;21913;52.456;13.634;2023-03-04T00:45:41;101085.28;;;10.79;58.06
25156;BME280;21913;52.456;13.634;2023-03-04T00:50:43;101085.28;;;10.81;57.76
25156;BME280;21913;52.456;13.634;2023-03-04T00:55:44;101083.56;;;10.82;57.77
25156;BME280;21913;52.456;13.634;2023-03-04T01:00:46;101076.66;;;10.80;58.03
25156;BME280;21913;52.456;13.634;2023-03-04T01:05:48;101073.19;;;10.80;57.92
25156;BME280;21913;52.456;13.634;2023-03-04T01:10:50;101076.63;;;10.79;57.82
25156;BME280;21913;52.456;13.634;2023-03-04T01:15:51;101077.50;;;10.79;58.03
25156;BME280;21913;52.456;13.634;2023-03-04T01:20:53;101078.38;;;10.80;57.92
25156;BME280;21913;52.456;13.634;2023-03-04T01:25:55;101070.59;;;10.80;58.02
25156;BME280;21913;52.456;13.634;2023-03-04T01:30:56;101071.47;;;10.80;57.90
25156;BME280;21913;52.456;13.634;2023-03-04T01:35:58;101068.03;;;10.80;58.07
25156;BME280;21913;52.456;13.634;2023-03-04T01:41:00;101060.25;;;10.80;58.10
25156;BME280;21913;52.456;13.634;2023-03-04T01:46:03;101054.22;;;10.81;57.93
25156;BME280;21913;52.456;13.634;2023-03-04T01:51:12;101057.66;;;10.80;58.12
25156;BME280;21913;52.456;13.634;2023-03-04T01:56:29;101057.66;;;10.80;58.16
25156;BME280;21913;52.456;13.634;2023-03-04T02:01:31;101052.50;;;10.80;58.15
25156;BME280;21913;52.456;13.634;2023-03-04T02:06:35;101037.81;;;10.80;58.10
25156;BME280;21913;52.456;13.634;2023-03-04T02:11:37;101041.25;;;10.79;57.98
25156;BME280;21913;52.456;13.634;2023-03-04T02:16:39;101043.88;;;10.81;58.22
25156;BME280;21913;52.456;13.634;2023-03-04T02:21:41;101039.53;;;10.78;58.15
25156;BME280;21913;52.456;13.634;2023-03-04T02:26:45;101034.38;;;10.80;58.18
25156;BME280;21913;52.456;13.634;2023-03-04T02:31:49;101033.50;;;10.79;58.16
25156;BME280;21913;52.456;13.634;2023-03-04T02:36:52;101021.41;;;10.80;58.16
25156;BME280;21913;52.456;13.634;2023-03-04T02:41:55;101017.09;;;10.79;58.19
25156;BME280;21913;52.456;13.634;2023-03-04T02:46:58;101006.75;;;10.79;58.15
25156;BME280;21913;52.456;13.634;2023-03-04T02:52:04;101009.34;;;10.79;58.11
25156;BME280;21913;52.456;13.634;2023-03-04T02:57:09;101006.75;;;10.79;58.21
25156;BME280;21913;52.456;13.634;2023-03-04T03:02:13;101007.59;;;10.78;58.30
25156;BME280;21913;52.456;13.634;2023-03-04T03:07:15;101007.63;;;10.81;58.25
25156;BME280;21913;52.456;13.634;2023-03-04T03:12:17;100998.13;;;10.78;58.16
25156;BME280;21913;52.456;13.634;2023-03-04T03:17:19;100998.97;;;10.79;58.42
25156;BME280;21913;52.456;13.634;2023-03-04T03:22:21;101002.44;;;10.79;58.18
25156;BME280;21913;52.456;13.634;2023-03-04T03:27:22;100996.38;;;10.79;58.20
25156;BME280;21913;52.456;13.634;2023-03-04T03:32:24;100992.06;;;10.78;58.18
25156;BME280;21913;52.456;13.634;2023-03-04T03:37:26;100992.94;;;10.78;58.36
25156;BME280;21913;52.456;13.634;2023-03-04T03:42:28;100983.44;;;10.79;58.28
25156;BME280;21913;52.456;13.634;2023-03-04T03:47:29;100988.63;;;10.79;58.29
25156;BME280;21913;52.456;13.634;2023-03-04T03:52:31;100992.09;;;10.79;58.32
25156;BME280;21913;52.456;13.634;2023-03-04T03:57:33;100990.34;;;10.80;58.29
25156;BME280;21913;52.456;13.634;2023-03-04T04:02:34;100997.25;;;10.79;58.37
25156;BME280;21913;52.456;13.634;2023-03-04T04:07:36;100986.03;;;10.79;58.41
25156;BME280;21913;52.456;13.634;2023-03-04T04:12:38;100986.88;;;10.78;58.37
25156;BME280;21913;52.456;13.634;2023-03-04T04:17:40;100986.03;;;10.79;58.37
25156;BME280;21913;52.456;13.634;2023-03-04T04:22:42;100982.59;;;10.80;58.41
25156;BME280;21913;52.456;13.634;2023-03-04T04:27:43;100974.81;;;10.78;58.44
25156;BME280;21913;52.456;13.634;2023-03-04T04:32:45;100973.94;;;10.78;58.44
25156;BME280;21913;52.456;13.634;2023-03-04T04:37:46;100977.41;;;10.78;58.28
25156;BME280;21913;52.456;13.634;2023-03-04T04:42:48;100973.09;;;10.79;58.38
25156;BME280;21913;52.456;13.634;2023-03-04T04:47:51;100977.41;;;10.80;58.39
25156;BME280;21913;52.456;13.634;2023-03-04T04:52:53;100973.94;;;10.78;58.45
25156;BME280;21913;52.456;13.634;2023-03-04T04:57:54;100974.81;;;10.78;58.42
25156;BME280;21913;52.456;13.634;2023-03-04T05:02:56;100975.69;;;10.79;58.43
25156;BME280;21913;52.456;13.634;2023-03-04T05:07:58;100977.41;;;10.78;58.44
25156;BME280;21913;52.456;13.634;2023-03-04T05:12:59;100983.44;;;10.79;58.53
25156;BME280;21913;52.456;13.634;2023-03-04T05:18:01;100977.41;;;10.78;58.46
25156;BME280;21913;52.456;13.634;2023-03-04T05:23:02;100978.28;;;10.79;58.42
25156;BME280;21913;52.456;13.634;2023-03-04T05:28:04;100974.81;;;10.78;58.58
25156;BME280;21913;52.456;13.634;2023-03-04T05:33:07;100978.28;;;10.79;58.49
25156;BME280;21913;52.456;13.634;2023-03-04T05:38:12;100970.50;;;10.79;58.57
25156;BME280;21913;52.456;13.634;2023-03-04T05:43:14;100973.94;;;10.78;58.51
25156;BME280;21913;52.456;13.634;2023-03-04T05:48:17;100973.09;;;10.79;58.51
25156;BME280;21913;52.456;13.634;2023-03-04T05:53:18;100968.78;;;10.78;58.58
25156;BME280;21913;52.456;13.634;2023-03-04T05:58:20;100974.81;;;10.78;58.63
25156;BME280;21913;52.456;13.634;2023-03-04T06:03:22;100979.13;;;10.78;58.60
25156;BME280;21913;52.456;13.634;2023-03-04T06:08:24;100980.00;;;10.78;58.51
25156;BME280;21913;52.456;13.634;2023-03-04T06:13:26;100977.41;;;10.78;58.49
25156;BME280;21913;52.456;13.634;2023-03-04T06:18:28;100980.00;;;10.78;58.60
25156;BME280;21913;52.456;13.634;2023-03-04T06:23:30;100992.06;;;10.78;58.59
25156;BME280;21913;52.456;13.634;2023-03-04T06:28:31;100992.06;;;10.78;58.62
25156;BME280;21913;52.456;13.634;2023-03-04T06:33:33;100992.94;;;10.78;58.59
25156;BME280;21913;52.456;13.634;2023-03-04T06:38:34;101010.19;;;10.79;58.54
25156;BME280;21913;52.456;13.634;2023-03-04T06:43:37;101002.41;;;10.78;58.79
25156;BME280;21913;52.456;13.634;2023-03-04T06:48:38;101008.47;;;10.78;58.71
25156;BME280;21913;52.456;13.634;2023-03-04T06:53:40;101012.78;;;10.78;58.72
25156;BME280;21913;52.456;13.634;2023-03-04T06:58:43;101017.94;;;10.78;58.72
25156;BME280;21913;52.456;13.634;2023-03-04T07:03:46;101014.50;;;10.77;58.67
25156;BME280;21913;52.456;13.634;2023-03-04T07:08:48;101017.94;;;10.78;58.73
25156;BME280;21913;52.456;13.634;2023-03-04T07:13:50;101014.50;;;10.79;58.75
25156;BME280;21913;52.456;13.634;2023-03-04T07:18:52;101016.22;;;10.78;58.75
25156;BME280;21913;52.456;13.634;2023-03-04T07:23:53;101025.72;;;10.78;58.85
25156;BME280;21913;52.456;13.634;2023-03-04T07:28:55;101018.81;;;10.78;58.70
25156;BME280;21913;52.456;13.634;2023-03-04T07:33:59;101025.72;;;10.78;58.87
25156;BME280;21913;52.456;13.634;2023-03-04T07:39:02;101018.81;;;10.78;58.77
25156;BME280;21913;52.456;13.634;2023-03-04T07:44:05;101023.13;;;10.78;58.92
25156;BME280;21913;52.456;13.634;2023-03-04T07:49:07;101019.69;;;10.79;59.00
25156;BME280;21913;52.456;13.634;2023-03-04T07:54:09;101012.78;;;10.78;58.73
25156;BME280;21913;52.456;13.634;2023-03-04T07:59:11;101027.44;;;10.79;58.76
25156;BME280;21913;52.456;13.634;2023-03-04T08:04:12;101015.38;;;10.78;58.70
25156;BME280;21913;52.456;13.634;2023-03-04T08:09:14;100999.84;;;10.78;58.93
25156;BME280;21913;52.456;13.634;2023-03-04T08:14:16;101012.78;;;10.78;59.09
25156;BME280;21913;52.456;13.634;2023-03-04T08:19:18;101018.81;;;10.78;58.87
25156;BME280;21913;52.456;13.634;2023-03-04T08:24:19;101016.22;;;10.78;59.01
25156;BME280;21913;52.456;13.634;2023-03-04T08:29:22;101012.78;;;10.78;59.02
25156;BME280;21913;52.456;13.634;2023-03-04T08:34:26;101009.34;;;10.79;59.14
25156;BME280;21913;52.456;13.634;2023-03-04T08:39:28;101011.06;;;10.78;59.09
25156;BME280;21913;52.456;13.634;2023-03-04T08:44:29;101011.03;;;10.77;59.08
25156;BME280;21913;52.456;13.634;2023-03-04T08:49:31;101007.59;;;10.78;59.11
25156;BME280;21913;52.456;13.634;2023-03-04T08:54:33;101005.88;;;10.78;58.99
25156;BME280;21913;52.456;13.634;2023-03-04T08:59:34;101003.28;;;10.78;59.18
25156;BME280;21913;52.456;13.634;2023-03-04T09:04:38;101002.41;;;10.78;59.09
25156;BME280;21913;52.456;13.634;2023-03-04T09:09:40;101005.88;;;10.78;59.11
25156;BME280;21913;52.456;13.634;2023-03-04T09:14:41;101005.00;;;10.78;59.15
25156;BME280;21913;52.456;13.634;2023-03-04T09:19:43;101005.88;;;10.78;59.18
25156;BME280;21913;52.456;13.634;2023-03-04T09:24:45;101004.16;;;10.79;59.28
25156;BME280;21913;52.456;13.634;2023-03-04T09:29:46;101001.56;;;10.79;59.09
25156;BME280;21913;52.456;13.634;2023-03-04T09:34:48;101002.41;;;10.78;59.21
25156;BME280;21913;52.456;13.634;2023-03-04T09:39:49;100998.13;;;10.78;59.29
25156;BME280;21913;52.456;13.634;2023-03-04T09:44:52;100995.53;;;10.78;59.30
25156;BME280;21913;52.456;13.634;2023-03-04T09:49:59;100987.75;;;10.78;59.25
25156;BME280;21913;52.456;13.634;2023-03-04T10:01:16;100975.69;;;10.79;59.16
25156;BME280;21913;52.456;13.634;2023-03-04T10:06:21;100988.63;;;10.79;59.29
25156;BME280;21913;52.456;13.634;2023-03-04T10:11:27;100983.44;;;10.79;59.38
25156;BME280;21913;52.456;13.634;2023-03-04T10:16:36;100986.88;;;10.76;59.32
25156;BME280;21913;52.456;13.634;2023-03-04T10:21:49;100984.69;;;10.46;59.95
25156;BME280;21913;52.456;13.634;2023-03-04T10:27:03;100987.78;;;10.24;60.75
25156;BME280;21913;52.456;13.634;2023-03-04T10:32:15;100987.38;;;10.01;61.37
25156;BME280;21913;52.456;13.634;2023-03-04T10:37:18;100986.44;;;9.99;61.94
25156;BME280;21913;52.456;13.634;2023-03-04T10:42:27;100983.28;;;10.15;61.49
25156;BME280;21913;52.456;13.634;2023-03-04T10:47:30;100983.56;;;10.31;61.07
25156;BME280;21913;52.456;13.634;2023-03-04T10:52:40;100981.16;;;10.43;60.68
25156;BME280;21913;52.456;13.634;2023-03-04T10:57:51;100976.13;;;10.50;60.50
25156;BME280;21913;52.456;13.634;2023-03-04T11:08:28;100966.75;;;10.59;60.29
25156;BME280;21913;52.456;13.634;2023-03-04T11:13:30;100962.50;;;10.61;60.30
25156;BME280;21913;52.456;13.634;2023-03-04T11:18:45;100959.06;;;10.63;60.11
25156;BME280;21913;52.456;13.634;2023-03-04T11:34:31;100951.34;;;10.66;60.08
25156;BME280;21913;52.456;13.634;2023-03-04T11:39:37;100946.19;;;10.68;59.98
25156;BME280;21913;52.456;13.634;2023-03-04T11:44:39;100943.59;;;10.68;59.96
25156;BME280;21913;52.456;13.634;2023-03-04T12:00:37;100926.38;;;10.70;60.01
25156;BME280;21913;52.456;13.634;2023-03-04T12:05:42;100922.03;;;10.69;59.98
25156;BME280;21913;52.456;13.634;2023-03-04T12:10:54;100919.44;;;10.69;60.20
25156;BME280;21913;52.456;13.634;2023-03-04T12:16:13;100912.56;;;10.71;60.16
25156;BME280;21913;52.456;13.634;2023-03-04T12:31:43;100895.34;;;10.71;60.10
25156;BME280;21913;52.456;13.634;2023-03-04T12:47:28;100879.81;;;10.71;60.17
25156;BME280;21913;52.456;13.634;2023-03-04T12:57:54;100865.16;;;10.72;60.24
25156;BME280;21913;52.456;13.634;2023-03-04T13:13:40;100851.34;;;10.73;60.21
25156;BME280;21913;52.456;13.634;2023-03-04T13:18:42;100851.34;;;10.73;60.20
25156;BME280;21913;52.456;13.634;2023-03-04T13:23:44;100838.41;;;10.73;60.24
25156;BME280;21913;52.456;13.634;2023-03-04T13:28:51;100844.47;;;10.73;60.26
25156;BME280;21913;52.456;13.634;2023-03-04T13:33:55;100834.97;;;10.74;60.04
25156;BME280;21913;52.456;13.634;2023-03-04T13:39:01;100846.19;;;10.74;60.31
25156;BME280;21913;52.456;13.634;2023-03-04T13:44:33;100840.16;;;10.74;60.28
25156;BME280;21913;52.456;13.634;2023-03-04T13:49:35;100827.22;;;10.74;60.32
25156;BME280;21913;52.456;13.634;2023-03-04T13:54:37;100816.84;;;10.74;60.41
25156;BME280;21913;52.456;13.634;2023-03-04T14:00:11;100824.63;;;10.75;60.20
25156;BME280;21913;52.456;13.634;2023-03-04T14:05:13;100819.44;;;10.74;60.38
25156;BME280;21913;52.456;13.634;2023-03-04T14:10:23;100818.59;;;10.75;60.41
25156;BME280;21913;52.456;13.634;2023-03-04T14:15:28;100809.09;;;10.74;60.43
25156;BME280;21913;52.456;13.634;2023-03-04T14:20:32;100807.38;;;10.74;60.43
25156;BME280;21913;52.456;13.634;2023-03-04T14:25:34;100804.78;;;10.74;60.36
25156;BME280;21913;52.456;13.634;2023-03-04T14:30:38;100800.47;;;10.75;60.50
25156;BME280;21913;52.456;13.634;2023-03-04T14:35:49;100801.31;;;10.75;60.33
25156;BME280;21913;52.456;13.634;2023-03-04T14:46:12;100797.03;;;10.76;60.30
25156;BME280;21913;52.456;13.634;2023-03-04T14:56:43;100792.69;;;10.75;60.37
25156;BME280;21913;52.456;13.634;2023-03-04T15:01:44;100794.41;;;10.74;60.54
25156;BME280;21913;52.456;13.634;2023-03-04T15:06:51;100790.09;;;10.75;60.31
25156;BME280;21913;52.456;13.634;2023-03-04T15:12:05;100786.66;;;10.76;60.50
25156;BME280;21913;52.456;13.634;2023-03-04T15:22:25;100779.75;;;10.75;60.58
25156;BME280;21913;52.456;13.634;2023-03-04T15:27:28;100781.50;;;10.76;60.53
25156;BME280;21913;52.456;13.634;2023-03-04T15:32:30;100772.84;;;10.75;60.45
25156;BME280;21913;52.456;13.634;2023-03-04T15:37:32;100772.84;;;10.74;60.58
25156;BME280;21913;52.456;13.634;2023-03-04T15:42:34;100778.91;;;10.76;60.57
25156;BME280;21913;52.456;13.634;2023-03-04T15:47:35;100771.13;;;10.76;60.39
25156;BME280;21913;52.456;13.634;2023-03-04T15:52:37;100778.91;;;10.76;60.45
25156;BME280;21913;52.456;13.634;2023-03-04T15:57:39;100779.75;;;10.73;60.22
25156;BME280;21913;52.456;13.634;2023-03-04T16:02:41;100771.97;;;10.73;59.79
25156;BME280;21913;52.456;13.634;2023-03-04T16:07:48;100782.34;;;10.75;59.73
25156;BME280;21913;52.456;13.634;2023-03-04T16:12:52;100784.94;;;10.75;59.83
25156;BME280;21913;52.456;13.634;2023-03-04T16:17:53;100784.94;;;10.75;59.88
25156;BME280;21913;52.456;13.634;2023-03-04T16:22:58;100779.75;;;10.75;59.96
25156;BME280;21913;52.456;13.634;2023-03-04T16:28:00;100779.75;;;10.75;59.99
25156;BME280;21913;52.456;13.634;2023-03-04T16:33:02;100781.53;;;10.77;60.12
25156;BME280;21913;52.456;13.634;2023-03-04T16:38:09;100778.06;;;10.77;60.06
25156;BME280;21913;52.456;13.634;2023-03-04T16:43:17;100772.03;;;10.76;60.03
25156;BME280;21913;52.456;13.634;2023-03-04T16:48:21;100784.06;;;10.76;60.16
25156;BME280;21913;52.456;13.634;2023-03-04T16:53:30;100785.84;;;10.77;60.21
25156;BME280;21913;52.456;13.634;2023-03-04T16:58:32;100791.84;;;10.76;60.16
25156;BME280;21913;52.456;13.634;2023-03-04T17:03:34;100792.75;;;10.76;60.25
25156;BME280;21913;52.456;13.634;2023-03-04T17:08:35;100791.84;;;10.76;60.29
25156;BME280;21913;52.456;13.634;2023-03-04T17:13:37;100797.91;;;10.76;60.22
25156;BME280;21913;52.456;13.634;2023-03-04T17:18:38;100797.91;;;10.76;60.33
25156;BME280;21913;52.456;13.634;2023-03-04T17:23:40;100803.09;;;10.76;60.20
25156;BME280;21913;52.456;13.634;2023-03-04T17:28:42;100807.38;;;10.76;60.35
25156;BME280;21913;52.456;13.634;2023-03-04T17:33:44;100808.28;;;10.76;60.29
25156;BME280;21913;52.456;13.634;2023-03-04T17:38:46;100810.00;;;10.77;60.18
25156;BME280;21913;52.456;13.634;2023-03-04T17:43:49;100812.53;;;10.76;60.21
25156;BME280;21913;52.456;13.634;2023-03-04T17:48:56;100807.38;;;10.76;60.22
25156;BME280;21913;52.456;13.634;2023-03-04T17:53:58;100811.72;;;10.77;60.11
25156;BME280;21913;52.456;13.634;2023-03-04T17:59:03;100807.38;;;10.76;60.21
25156;BME280;21913;52.456;13.634;2023-03-04T18:04:05;100807.38;;;10.76;60.34
25156;BME280;21913;52.456;13.634;2023-03-04T18:09:07;100807.38;;;10.76;60.30
25156;BME280;21913;52.456;13.634;2023-03-04T18:14:08;100808.28;;;10.76;60.20
25156;BME280;21913;52.456;13.634;2023-03-04T18:19:10;100805.63;;;10.75;60.35
25156;BME280;21913;52.456;13.634;2023-03-04T18:24:12;100802.19;;;10.76;60.23
25156;BME280;21913;52.456;13.634;2023-03-04T18:29:13;100799.59;;;10.76;60.25
25156;BME280;21913;52.456;13.634;2023-03-04T18:34:15;100802.19;;;10.76;60.18
25156;BME280;21913;52.456;13.634;2023-03-04T18:39:17;100801.38;;;10.77;60.24
25156;BME280;21913;52.456;13.634;2023-03-04T18:44:19;100802.19;;;10.76;60.17
25156;BME280;21913;52.456;13.634;2023-03-04T18:49:21;100802.19;;;10.76;60.26
25156;BME280;21913;52.456;13.634;2023-03-04T18:54:23;100801.31;;;10.75;60.24
25156;BME280;21913;52.456;13.634;2023-03-04T18:59:55;100800.50;;;10.76;60.25
25156;BME280;21913;52.456;13.634;2023-03-04T19:05:04;100806.50;;;10.75;60.21
25156;BME280;21913;52.456;13.634;2023-03-04T19:10:07;100794.41;;;10.73;60.29
25156;BME280;21913;52.456;13.634;2023-03-04T19:15:10;100808.22;;;10.75;60.23
25156;BME280;21913;52.456;13.634;2023-03-04T19:20:13;100816.84;;;10.75;60.37
25156;BME280;21913;52.456;13.634;2023-03-04T19:25:14;100815.13;;;10.76;60.24
25156;BME280;21913;52.456;13.634;2023-03-04T19:30:16;100808.22;;;10.75;60.34
25156;BME280;21913;52.456;13.634;2023-03-04T19:35:18;100816.00;;;10.75;60.35
25156;BME280;21913;52.456;13.634;2023-03-04T19:40:20;100819.44;;;10.75;60.40
25156;BME280;21913;52.456;13.634;2023-03-04T19:45:22;100816.84;;;10.75;60.26
25156;BME280;21913;52.456;13.634;2023-03-04T19:50:24;100834.16;;;10.76;60.31
25156;BME280;21913;52.456;13.634;2023-03-04T19:55:26;100829.84;;;10.77;60.34
25156;BME280;21913;52.456;13.634;2023-03-04T20:00:27;100832.44;;;10.77;60.30
25156;BME280;21913;52.456;13.634;2023-03-04T20:05:29;100841.03;;;10.76;60.33
25156;BME280;21913;52.456;13.634;2023-03-04T20:10:32;100835.84;;;10.74;60.31
25156;BME280;21913;52.456;13.634;2023-03-04T20:15:34;100835.84;;;10.76;60.31
25156;BME280;21913;52.456;13.634;2023-03-04T20:20:37;100835.84;;;10.76;60.30
25156;BME280;21913;52.456;13.634;2023-03-04T20:25:39;100835.84;;;10.76;60.29
25156;BME280;21913;52.456;13.634;2023-03-04T20:30:40;100836.75;;;10.76;60.34
25156;BME280;21913;52.456;13.634;2023-03-04T20:35:42;100833.25;;;10.76;60.23
25156;BME280;21913;52.456;13.634;2023-03-04T20:40:44;100838.44;;;10.76;60.32
25156;BME280;21913;52.456;13.634;2023-03-04T20:45:45;100839.28;;;10.75;60.26
25156;BME280;21913;52.456;13.634;2023-03-04T20:50:47;100841.03;;;10.76;60.25
25156;BME280;21913;52.456;13.634;2023-03-04T20:55:48;100831.53;;;10.75;60.26
25156;BME280;21913;52.456;13.634;2023-03-04T21:00:50;100833.25;;;10.76;60.42
25156;BME280;21913;52.456;13.634;2023-03-04T21:05:52;100823.75;;;10.75;60.41
25156;BME280;21913;52.456;13.634;2023-03-04T21:10:53;100825.50;;;10.76;60.42
25156;BME280;21913;52.456;13.634;2023-03-04T21:15:56;100822.91;;;10.76;60.24
25156;BME280;21913;52.456;13.634;2023-03-04T21:20:58;100822.03;;;10.75;60.38
25156;BME280;21913;52.456;13.634;2023-03-04T21:25:59;100815.13;;;10.76;60.49
25156;BME280;21913;52.456;13.634;2023-03-04T21:31:01;100810.81;;;10.75;60.37
25156;BME280;21913;52.456;13.634;2023-03-04T21:36:03;100807.38;;;10.76;60.21
25156;BME280;21913;52.456;13.634;2023-03-04T21:41:05;100808.28;;;10.76;60.43
25156;BME280;21913;52.456;13.634;2023-03-04T21:46:08;100800.47;;;10.75;60.37
25156;BME280;21913;52.456;13.634;2023-03-04T21:51:11;100803.06;;;10.75;60.47
25156;BME280;21913;52.456;13.634;2023-03-04T21:56:13;100792.75;;;10.76;60.47
25156;BME280;21913;52.456;13.634;2023-03-04T22:01:19;100799.59;;;10.76;60.26
25156;BME280;21913;52.456;13.634;2023-03-04T22:06:25;100796.16;;;10.75;60.47
25156;BME280;21913;52.456;13.634;2023-03-04T22:11:28;100794.44;;;10.76;60.28
25156;BME280;21913;52.456;13.634;2023-03-04T22:16:33;100790.09;;;10.75;60.40
25156;BME280;21913;52.456;13.634;2023-03-04T22:21:37;100785.81;;;10.75;60.25
25156;BME280;21913;52.456;13.634;2023-03-04T22:26:39;100783.22;;;10.75;60.42
25156;BME280;21913;52.456;13.634;2023-03-04T22:31:41;100781.50;;;10.76;60.51
25156;BME280;21913;52.456;13.634;2023-03-04T22:36:44;100768.53;;;10.76;60.32
25156;BME280;21913;52.456;13.634;2023-03-04T22:41:46;100765.97;;;10.76;60.41
25156;BME280;21913;52.456;13.634;2023-03-04T22:46:48;100764.22;;;10.75;60.48
25156;BME280;21913;52.456;13.634;2023-03-04T22:51:50;100771.13;;;10.76;60.38
25156;BME280;21913;52.456;13.634;2023-03-04T22:56:51;100759.06;;;10.75;60.44
25156;BME280;21913;52.456;13.634;2023-03-04T23:01:53;100761.63;;;10.75;60.26
25156;BME280;21913;52.456;13.634;2023-03-04T23:06:54;100764.22;;;10.75;60.41
25156;BME280;21913;52.456;13.634;2023-03-04T23:11:56;100755.59;;;10.76;60.34
25156;BME280;21913;52.456;13.634;2023-03-04T23:16:58;100747.84;;;10.76;60.32
25156;BME280;21913;52.456;13.634;2023-03-04T23:21:59;100739.22;;;10.75;60.40
25156;BME280;21913;52.456;13.634;2023-03-04T23:27:01;100740.06;;;10.76;60.32
25156;BME280;21913;52.456;13.634;2023-03-04T23:32:02;100732.31;;;10.76;60.37
25156;BME280;21913;52.456;13.634;2023-03-04T23:37:04;100739.22;;;10.75;60.34
25156;BME280;21913;52.456;13.634;2023-03-04T23:42:06;100733.16;;;10.75;60.24
25156;BME280;21913;52.456;13.634;2023-03-04T23:47:08;100727.13;;;10.76;60.26
25156;BME280;21913;52.456;13.634;2023-03-04T23:52:09;100723.69;;;10.75;60.39
25156;BME280;21913;52.456;13.634;2023-03-04T23:57:11;100723.69;;;10.75;60.39
